Relevés horaires Melle (Belgique)


Relevés horaires à Melle - Jeudi 19 Nov. 2015
Heure UTC1 Température [°C] Vent [km/h] Hum. [%] Pres.4 [hPa] Visi. [Km] Nébu. [octa] Préc.5 [mm] Cond.
2m. Res. Ros. Dir.2 Vit. Moy. Raf.3
23:00 10.2 9.4 9.1 O 7.4 7.4 11.1 93 1013.5(0.7/3h) -- -- -- --
22:00 10.4 10 9.6 OSO 5.6 7.4 11.1 95 1013.5(0.7/3h) -- -- -- --
21:00 10.4 9.6 9.6 OSO 7.4 7.4 11.1 95 1013.7(1.1/3h) -- -- -- --
20:00 9.8 9.4 9.0 OSO 5.6 7.4 9.3 95 1012.8(0.6/3h) -- -- -- --
19:00 9.5 9.5 8.6 OSO 3.7 3.7 7.4 94 1012.8(0.4/3h) -- -- -- --
18:00 9.6 9.6 8.8 NO 1.9 11.1 16.7 95 1012.6(-0.6/3h) -- -- 25/12h
--
17:00 9.6 9.6 8.6 NNO 3.7 3.7 3.7 93 1012.2(-2.1/3h) -- -- -- --
16:00 9.6 9.6 8.5 N 1.9 3.7 3.7 93 1012.4(-2.5/3h) -- -- -- --
15:00 9.7 9.7 8.4 O 3.7 11.1 16.7 92 1013.2(-2.6/3h) -- -- -- --
14:00 11.1 10.8 9.6 OSO 5.6 11.1 16.7 90 1014.3(-2.1/3h) -- -- -- --
13:00 12.2 11.1 10.8 SO 11.1 11.1 16.7 91 1014.9(-1.4/3h) -- -- -- --
12:00 11.3 10.7 9.5 OSO 7.4 13.0 24.1 89 1015.8(-0.3/3h) -- -- 7/6h
--
11:00 12.8 12.1 10.0 OSO 9.3 11.1 18.5 83 1016.4(0.4/3h) -- -- -- --
10:00 13.0 12.1 9.9 SO 11.1 13.0 20.4 81 1016.3(0.8/3h) -- -- -- --
09:00 12.8 11.6 9.9 OSO 13.0 13.0 22.2 83 1016.1(0.8/3h) -- -- -- --
08:00 13.0 12.1 9.3 OSO 11.1 11.1 16.7 78 1016(1.0/3h) -- -- -- --
07:00 13.1 12.2 8.8 OSO 11.1 11.1 18.5 75 1015.5(0.8/3h) -- -- -- --
06:00 12.8 11.8 9.7 OSO 11.1 18.5 27.8 81 1015.3(1.5/3h) -- -- 0.5/12h
--
05:00 13.0 12.3 7.5 OSO 9.3 13.0 22.2 69 1015(1.4/3h) -- -- -- --
04:00 13.3 12.2 7.7 O 13.0 14.8 27.8 69 1014.7(1.1/3h) -- -- -- --
03:00 13.6 12.4 9.1 OSO 14.8 18.5 27.8 74 1013.8(0.1/3h) -- -- -- --
02:00 13.5 12.2 9.3 OSO 14.8 18.5 27.8 76 1013.6(0.0/3h) -- -- -- --
01:00 13.8 12.8 10.3 OSO 13.0 14.8 24.1 79 1013.6(0.1/3h) -- -- -- --
00:00 13.1 12.2 10.0 OSO 11.1 20.4 31.5 81 1013.7(0.4/3h) -- -- 0.5/6h
--

1 Coordinated Universal Time. Actuellement il est 14:00 locale et 12:00 UTC.

2 Le vent souffle depuis la direction indiquée vers la direction oposée.

3 Les rafales max. sont disponible 40 min après l'heure du relevé.

4 Pour les stations d'altitude (plus de 600m) le géopotentiel du niveau le plus proche de la pression obligatoire est indiqué.

5 Les stations disposant d'un diffuseur peuvent indiquer "trace". Cela signifie que des précipitations ont touchés le sol mais que la quantité est inférieure à 0.1 mm.

Récapitulatif de la journée
Température [°C] Vent [km/h] Ensoleillement4 [h] Precipitations totale5 [mm] Pression [Hpa]
Min1 Max.2 Moy.3 Max. Min Max.
12.6 13.2 11.5 31.5 0 h 0 min 0 1012.2 1016.4

1 Température minimale relevée entre 18:00 UTC la veille et 18:00 UTC le jour donné.

2 Température maximale relevée entre 06:00 UTC le jour donné et 06:00 UTC le lendemain.

3 Vent moyen de la journée basé sur les relevés horaires.

4 Ensoleillement en heures relevé entre 06:00 UTC la veille et 06:00 UTC le jour donné.

5 Précipitations totales tombées entre 06:00 UTC la jour donné et 06:00 UTC le lendemain.

Graphiques horaires